EST,Max TemperatureF,Mean TemperatureF,Min TemperatureF,Max Dew PointF,MeanDew PointF,Min DewpointF,Max Humidity, Mean Humidity, Min Humidity, Max Sea Level PressureIn, Mean Sea Level PressureIn, Min Sea Level PressureIn, Max VisibilityMiles, Mean VisibilityMiles, Min VisibilityMiles, Max Wind SpeedMPH, Mean Wind SpeedMPH, Max Gust SpeedMPH,PrecipitationIn, CloudCover, Events, WindDirDegrees
2012-11-1,50,45,42,39,37,35,79,70,66,29.68,29.63,29.59,10,10,10,14,6,23,0.00,6,,255
2012-11-2,51,45,42,37,34,30,74,66,56,29.85,29.73,29.68,10,10,10,15,7,24,0.00,6,Rain,281
2012-11-3,46,44,41,33,30,27,70,59,50,30.03,29.93,29.85,10,10,10,16,9,24,0.00,8,,304
2012-11-4,46,40,36,30,28,27,70,60,53,30.05,30.02,30.00,10,10,10,13,7,20,0.00,5,,315
2012-11-5,43,40,34,28,25,20,65,56,50,30.21,30.09,30.03,10,10,10,13,9,,0.00,7,,349
2012-11-6,41,32,23,25,22,19,85,64,47,30.25,30.17,30.06,10,10,10,7,2,,0.00,3,,44
2012-11-7,42,38,35,35,28,19,100,70,52,30.04,29.93,29.86,10,10,4,18,9,26,0.01,6,Rain-Snow,5
2012-11-8,51,45,39,25,18,14,57,37,26,30.01,29.89,29.83,10,10,10,20,12,30,0.00,3,,325
2012-11-9,54,44,33,32,27,17,82,56,40,30.24,30.14,30.02,10,10,10,12,5,20,0.00,0,,286
2012-11-10,57,44,32,39,35,29,89,72,49,30.41,30.33,30.25,10,10,8,4,0,,0.00,3,,100
2012-11-11,66,52,37,48,42,36,100,82,40,30.49,30.45,30.40,10,6,0,5,1,,0.00,3,Fog,73
2012-11-12,68,55,42,58,51,41,97,82,61,30.45,30.32,30.15,10,8,2,9,3,,0.00,2,,167
2012-11-13,63,50,36,59,40,27,94,79,54,30.48,30.31,30.13,10,9,3,20,8,30,0.44,6,Rain,327
2012-11-14,46,38,28,27,24,22,79,60,39,30.55,30.50,30.46,10,10,10,14,6,20,0.00,0,,8
2012-11-15,46,37,28,30,27,23,85,70,46,30.45,30.39,30.31,10,10,10,9,1,,0.00,1,,42
2012-11-16,50,40,30,30,27,24,89,66,41,30.45,30.36,30.32,10,10,10,10,2,,0.00,0,,2
2012-11-17,54,40,26,31,28,23,88,68,40,30.63,30.57,30.46,10,10,8,10,2,,0.00,0,,31
2012-11-18,51,39,27,36,31,25,92,76,48,30.66,30.62,30.57,10,10,8,6,1,,0.00,1,,55
2012-11-19,53,44,35,38,35,32,89,73,57,30.53,30.41,30.25,10,10,10,8,4,,0.00,4,,34
2012-11-20,51,42,32,37,33,30,92,75,52,30.23,30.18,30.12,10,10,8,4,0,,0.00,1,,25
2012-11-21,55,42,28,34,29,25,92,68,35,30.24,30.20,30.15,10,10,10,8,1,,0.00,0,,31
2012-11-22,55,41,27,35,29,23,89,71,39,30.29,30.23,30.15,10,10,9,6,0,,0.00,0,,30
2012-11-23,57,42,28,39,33,26,96,67,35,30.14,29.92,29.73,10,9,4,13,2,17,0.00,2,,214
2012-11-24,42,38,35,23,21,20,57,51,43,29.94,29.85,29.79,10,10,10,16,11,29,0.00,5,,289
2012-11-25,37,32,25,22,20,19,78,57,48,30.01,29.96,29.93,10,10,10,13,7,20,0.00,3,,271
2012-11-26,48,36,24,27,23,19,84,63,37,30.26,30.14,30.00,10,10,10,10,2,17,0.00,1,,284
2012-11-27,35,34,33,34,32,25,100,91,70,30.28,30.24,30.20,10,5,0,7,2,,0.50,8,Fog-Rain-Snow,16
2012-11-28,37,32,25,33,26,21,96,77,54,30.34,30.27,30.22,10,9,4,13,3,22,0.00,3,,283
2012-11-29,43,33,23,26,23,19,85,68,47,30.41,30.35,30.32,10,9,7,9,2,,0.00,0,,239
2012-11-30,45,34,24,36,27,21,92,75,49,30.41,30.37,30.34,10,8,4,6,1,,0.00,3,,62